createdAt,value
2023-03-07T00:00:12.671Z,17.60
2023-03-07T00:01:12.954Z,17.10
2023-03-07T00:02:13.275Z,17.80
2023-03-07T00:03:13.633Z,17.90
2023-03-07T00:04:13.979Z,17.80
2023-03-07T00:05:14.272Z,17.10
2023-03-07T00:06:14.563Z,17.40
2023-03-07T00:07:14.908Z,17.00
2023-03-07T00:08:15.192Z,16.00
2023-03-07T00:09:15.462Z,16.30
2023-03-07T00:10:15.825Z,15.70
2023-03-07T00:11:16.085Z,17.20
2023-03-07T00:12:16.430Z,15.70
2023-03-07T00:13:16.710Z,15.20
2023-03-07T00:14:17.050Z,14.80
2023-03-07T00:15:17.390Z,14.20
2023-03-07T00:16:17.693Z,14.70
2023-03-07T00:17:17.946Z,14.40
2023-03-07T00:18:18.300Z,13.80
2023-03-07T00:19:18.591Z,14.00
2023-03-07T00:20:18.935Z,14.10
2023-03-07T00:21:19.201Z,13.50
2023-03-07T00:22:19.574Z,13.20
2023-03-07T00:23:19.812Z,13.40
2023-03-07T00:24:20.157Z,12.70
2023-03-07T00:25:20.568Z,12.80
2023-03-07T00:26:20.731Z,12.50
2023-03-07T00:27:21.068Z,12.70
2023-03-07T00:28:21.368Z,12.20
2023-03-07T00:29:21.666Z,12.50
2023-03-07T00:30:21.986Z,11.50
2023-03-07T00:31:22.263Z,11.10
2023-03-07T00:32:22.624Z,11.40
2023-03-07T00:33:22.900Z,11.50
2023-03-07T00:34:23.180Z,11.00
2023-03-07T00:35:23.549Z,10.30
2023-03-07T00:36:23.824Z,9.90
2023-03-07T00:37:24.139Z,9.60
2023-03-07T00:38:24.473Z,9.30
2023-03-07T00:39:24.754Z,9.40
2023-03-07T00:40:25.061Z,9.10
2023-03-07T00:41:25.388Z,9.20
2023-03-07T00:42:25.639Z,8.10
2023-03-07T00:43:25.920Z,8.80
2023-03-07T00:44:26.238Z,8.30
2023-03-07T00:45:26.523Z,7.90
2023-03-07T00:46:26.769Z,8.70
2023-03-07T00:47:27.044Z,8.00
2023-03-07T00:48:27.355Z,7.50
2023-03-07T00:49:27.660Z,7.50
2023-03-07T00:50:27.913Z,7.00
2023-03-07T00:51:28.211Z,7.50
2023-03-07T00:52:28.479Z,7.30
2023-03-07T00:53:28.704Z,6.90
2023-03-07T00:54:29.033Z,6.90
2023-03-07T00:55:29.320Z,7.10
2023-03-07T00:56:29.582Z,7.00
2023-03-07T00:57:29.872Z,6.80
2023-03-07T00:58:30.165Z,6.80
2023-03-07T00:59:30.419Z,6.50
2023-03-07T01:00:30.714Z,7.00
2023-03-07T01:01:30.972Z,7.00
2023-03-07T01:02:31.292Z,6.20
2023-03-07T01:03:31.544Z,5.80
2023-03-07T01:04:31.818Z,6.00
2023-03-07T01:05:32.104Z,6.00
2023-03-07T01:06:32.405Z,5.80
2023-03-07T01:07:32.675Z,5.70
2023-03-07T01:08:33.001Z,5.50
2023-03-07T01:09:33.218Z,5.10
2023-03-07T01:10:33.559Z,5.70
2023-03-07T01:11:33.830Z,5.50
2023-03-07T01:12:34.085Z,5.40
2023-03-07T01:13:34.406Z,5.40
2023-03-07T01:14:34.670Z,5.60
2023-03-07T01:15:34.962Z,5.10
2023-03-07T01:16:35.267Z,5.30
2023-03-07T01:17:35.547Z,5.30
2023-03-07T01:18:35.823Z,5.10
2023-03-07T01:19:36.113Z,4.80
2023-03-07T01:20:36.406Z,5.20
2023-03-07T01:21:36.687Z,4.70
2023-03-07T01:22:36.965Z,4.70
2023-03-07T01:23:37.244Z,4.70
2023-03-07T01:24:37.552Z,4.50
2023-03-07T01:25:38.022Z,4.30
2023-03-07T01:26:38.121Z,4.50
2023-03-07T01:27:38.364Z,4.40
2023-03-07T01:28:38.647Z,4.40
2023-03-07T01:29:38.964Z,4.30
2023-03-07T01:30:39.214Z,3.90
2023-03-07T01:31:39.582Z,4.20
2023-03-07T01:32:39.806Z,4.30
2023-03-07T01:33:40.036Z,4.10
2023-03-07T01:34:40.326Z,3.90
2023-03-07T01:35:40.792Z,4.00
2023-03-07T01:36:40.962Z,4.10
2023-03-07T01:37:41.197Z,4.10
2023-03-07T01:38:41.488Z,4.10
2023-03-07T01:39:41.785Z,3.80
2023-03-07T01:40:42.126Z,4.00
2023-03-07T01:41:42.407Z,4.10
2023-03-07T01:42:42.653Z,3.70
2023-03-07T01:43:42.916Z,3.70
2023-03-07T01:44:43.215Z,4.00
2023-03-07T01:45:43.558Z,3.90
2023-03-07T01:46:43.779Z,3.40
2023-03-07T01:47:44.106Z,3.60
2023-03-07T01:48:44.362Z,3.20
2023-03-07T01:49:44.651Z,3.60
2023-03-07T01:50:44.895Z,3.80
2023-03-07T01:51:45.188Z,3.40
2023-03-07T01:52:45.498Z,3.20
2023-03-07T01:53:45.769Z,3.40
2023-03-07T01:54:46.043Z,3.20
2023-03-07T01:55:46.303Z,3.20
2023-03-07T01:56:46.610Z,3.30
2023-03-07T01:57:46.886Z,3.40
2023-03-07T01:58:47.184Z,3.00
2023-03-07T01:59:47.413Z,3.50
2023-03-07T02:00:47.711Z,3.00
2023-03-07T02:01:47.970Z,3.00
2023-03-07T02:02:48.241Z,3.30
2023-03-07T02:03:48.540Z,3.20
2023-03-07T02:04:48.848Z,3.10
2023-03-07T02:05:49.109Z,2.90
2023-03-07T02:06:49.376Z,2.90
2023-03-07T02:07:49.645Z,2.90
2023-03-07T02:08:49.950Z,2.90
2023-03-07T02:09:50.196Z,2.90
2023-03-07T02:10:50.506Z,2.90
2023-03-07T02:11:50.756Z,3.00
2023-03-07T02:12:51.040Z,2.90
2023-03-07T02:13:51.357Z,2.60
2023-03-07T02:14:51.619Z,3.40
2023-03-07T02:15:51.973Z,2.80
2023-03-07T02:16:52.206Z,2.70
2023-03-07T02:17:52.515Z,2.90
2023-03-07T02:18:52.789Z,3.00
2023-03-07T02:19:53.019Z,2.70
2023-03-07T02:20:53.386Z,3.00
2023-03-07T02:21:53.654Z,3.20
2023-03-07T02:22:53.923Z,2.80
2023-03-07T02:23:54.185Z,2.80
2023-03-07T02:24:54.467Z,2.90
2023-03-07T02:25:54.747Z,3.40
2023-03-07T02:26:54.970Z,3.80
2023-03-07T02:27:55.260Z,3.50
2023-03-07T02:28:55.562Z,3.40
2023-03-07T02:29:55.844Z,3.30
2023-03-07T02:30:56.205Z,3.10
2023-03-07T02:31:56.470Z,3.40
2023-03-07T02:32:56.745Z,3.10
2023-03-07T02:33:56.972Z,3.80
2023-03-07T02:34:57.291Z,3.80
2023-03-07T02:35:57.553Z,3.60
2023-03-07T02:36:57.833Z,3.50
2023-03-07T02:37:58.121Z,3.80
2023-03-07T02:38:58.427Z,3.40
2023-03-07T02:39:58.737Z,3.70
2023-03-07T02:40:58.999Z,3.70
2023-03-07T02:41:59.287Z,3.50
2023-03-07T02:42:59.538Z,3.80
2023-03-07T02:43:59.820Z,3.70
2023-03-07T02:45:00.147Z,3.80
2023-03-07T02:46:00.443Z,3.90
2023-03-07T02:47:00.690Z,3.90
2023-03-07T02:48:00.996Z,3.60
2023-03-07T02:49:01.239Z,3.50
2023-03-07T02:50:01.486Z,3.60
2023-03-07T02:51:01.771Z,3.60
2023-03-07T02:52:02.084Z,4.10
2023-03-07T02:53:02.318Z,3.90
2023-03-07T02:54:02.640Z,3.40
2023-03-07T02:55:02.870Z,3.80
2023-03-07T02:56:03.161Z,3.60
2023-03-07T02:57:03.469Z,3.50
2023-03-07T02:58:03.730Z,3.90
2023-03-07T02:59:04.016Z,3.60
2023-03-07T03:00:04.286Z,3.70
2023-03-07T03:01:04.564Z,3.50
2023-03-07T03:02:04.924Z,3.60
2023-03-07T03:03:05.195Z,3.90
2023-03-07T03:04:05.422Z,3.80
2023-03-07T03:05:05.737Z,3.80
2023-03-07T03:06:06.012Z,3.70
2023-03-07T03:07:06.306Z,3.70
2023-03-07T03:08:06.578Z,3.80
2023-03-07T03:09:06.845Z,3.60
2023-03-07T03:10:07.083Z,4.10
2023-03-07T03:11:07.387Z,4.00
2023-03-07T03:12:07.708Z,3.90
2023-03-07T03:13:07.940Z,4.00
2023-03-07T03:14:08.260Z,4.10
2023-03-07T03:15:08.497Z,3.80
2023-03-07T03:16:08.883Z,4.30
2023-03-07T03:17:09.166Z,4.30
2023-03-07T03:18:09.397Z,4.40
2023-03-07T03:19:09.713Z,4.50
2023-03-07T03:20:09.957Z,4.20
2023-03-07T03:21:10.266Z,4.40
2023-03-07T03:22:10.666Z,4.50
2023-03-07T03:23:10.808Z,4.40
2023-03-07T03:24:11.065Z,4.70
2023-03-07T03:25:11.342Z,4.80
2023-03-07T03:26:11.634Z,4.30
2023-03-07T03:27:11.908Z,5.00
2023-03-07T03:28:12.218Z,4.80
2023-03-07T03:29:12.498Z,5.00
2023-03-07T03:30:12.765Z,4.60
2023-03-07T03:31:13.087Z,4.80
2023-03-07T03:32:13.397Z,5.30
2023-03-07T03:33:13.638Z,5.00
2023-03-07T03:34:13.944Z,4.90
2023-03-07T03:35:14.203Z,5.00
2023-03-07T03:36:14.462Z,4.90
2023-03-07T03:37:14.773Z,5.00
2023-03-07T03:38:15.027Z,5.40
2023-03-07T03:39:15.296Z,5.60
2023-03-07T03:40:15.613Z,5.80
2023-03-07T03:41:15.877Z,5.80
2023-03-07T03:42:16.214Z,5.90
2023-03-07T03:43:16.463Z,5.50
2023-03-07T03:44:16.723Z,5.80
2023-03-07T03:45:17.025Z,5.70
2023-03-07T03:46:17.317Z,5.70
2023-03-07T03:47:17.617Z,5.60
2023-03-07T03:48:17.876Z,5.90
2023-03-07T03:49:18.177Z,6.00
2023-03-07T03:50:18.479Z,5.60
2023-03-07T03:51:18.763Z,5.90
2023-03-07T03:52:19.048Z,6.30
2023-03-07T03:53:19.362Z,6.00
2023-03-07T03:54:19.643Z,6.40
2023-03-07T03:55:19.878Z,6.00
2023-03-07T03:56:20.230Z,6.00
2023-03-07T03:57:20.495Z,5.90
2023-03-07T03:58:20.753Z,5.90
2023-03-07T03:59:21.016Z,6.10
2023-03-07T04:00:21.325Z,6.10
2023-03-07T04:01:21.579Z,5.80
2023-03-07T04:02:21.974Z,6.30
2023-03-07T04:03:22.132Z,5.60
2023-03-07T04:04:22.408Z,6.00
2023-03-07T04:05:22.677Z,6.10
2023-03-07T04:06:22.984Z,5.80
2023-03-07T04:07:23.274Z,6.30
2023-03-07T04:08:23.536Z,5.80
2023-03-07T04:09:23.824Z,6.40
2023-03-07T04:10:24.120Z,5.50
2023-03-07T04:11:24.415Z,5.50
2023-03-07T04:12:24.733Z,6.20
2023-03-07T04:13:24.966Z,6.10
2023-03-07T04:14:25.280Z,6.40
2023-03-07T04:15:25.533Z,5.80
2023-03-07T04:16:25.883Z,5.70
2023-03-07T04:17:26.145Z,6.20
2023-03-07T04:18:26.420Z,6.70
2023-03-07T04:19:28.756Z,6.30
2023-03-07T04:20:26.914Z,6.10
2023-03-07T04:21:27.231Z,7.00
2023-03-07T04:22:27.505Z,6.80
2023-03-07T04:23:27.776Z,6.30
2023-03-07T04:24:28.027Z,6.60
2023-03-07T04:25:28.329Z,7.00
2023-03-07T04:26:28.641Z,6.50
2023-03-07T04:27:28.891Z,6.80
2023-03-07T04:28:29.151Z,6.90
2023-03-07T04:29:29.448Z,7.20
2023-03-07T04:30:29.721Z,7.00
2023-03-07T04:31:30.068Z,6.50
2023-03-07T04:32:30.358Z,8.00
2023-03-07T04:33:30.581Z,7.80
2023-03-07T04:34:30.892Z,7.10
2023-03-07T04:35:31.207Z,7.30
2023-03-07T04:36:31.432Z,7.60
2023-03-07T04:37:31.758Z,7.50
2023-03-07T04:38:32.046Z,7.50
2023-03-07T04:39:32.275Z,7.40
2023-03-07T04:40:32.591Z,8.00
2023-03-07T04:41:32.832Z,7.90
2023-03-07T04:42:33.158Z,7.70
2023-03-07T04:43:33.397Z,7.90
2023-03-07T04:44:33.710Z,7.90
2023-03-07T04:45:33.954Z,8.10
2023-03-07T04:46:34.277Z,8.10
2023-03-07T04:47:34.523Z,8.20
2023-03-07T04:48:34.792Z,8.20
2023-03-07T04:49:35.064Z,8.40
2023-03-07T04:50:35.353Z,8.30
2023-03-07T04:51:35.623Z,8.30
2023-03-07T04:52:35.966Z,8.30
2023-03-07T04:53:36.185Z,8.90
2023-03-07T04:54:36.473Z,9.10
2023-03-07T04:55:36.781Z,8.70
2023-03-07T04:56:37.084Z,8.50
2023-03-07T04:57:37.349Z,9.70
2023-03-07T04:58:37.653Z,9.10
2023-03-07T04:59:37.972Z,9.60
2023-03-07T05:00:38.222Z,9.20
2023-03-07T05:01:38.588Z,9.00
2023-03-07T05:02:38.837Z,9.30
2023-03-07T05:03:39.132Z,9.20
2023-03-07T05:04:39.521Z,9.40
2023-03-07T05:05:39.813Z,9.30
2023-03-07T05:06:40.078Z,9.40
2023-03-07T05:07:40.405Z,9.10
2023-03-07T05:08:40.723Z,9.30
2023-03-07T05:09:41.002Z,9.30
2023-03-07T05:10:41.359Z,9.50
2023-03-07T05:11:41.649Z,9.30
2023-03-07T05:12:41.952Z,9.60
2023-03-07T05:13:42.223Z,9.70
2023-03-07T05:14:42.560Z,9.30
2023-03-07T05:15:42.900Z,10.00
2023-03-07T05:16:43.117Z,9.50
2023-03-07T05:17:43.447Z,9.80
2023-03-07T05:18:43.723Z,9.70
2023-03-07T05:19:44.059Z,10.00
2023-03-07T05:20:44.409Z,9.70
2023-03-07T05:21:44.704Z,10.00
2023-03-07T05:22:45.067Z,10.20
2023-03-07T05:23:45.352Z,9.80
2023-03-07T05:24:45.692Z,9.90
2023-03-07T05:25:45.983Z,10.20
2023-03-07T05:26:46.274Z,10.60
2023-03-07T05:27:46.662Z,10.40
2023-03-07T05:28:46.951Z,10.30
2023-03-07T05:29:47.274Z,10.60
2023-03-07T05:30:47.709Z,10.30
2023-03-07T05:31:47.926Z,10.70
2023-03-07T05:32:48.222Z,10.90
2023-03-07T05:33:48.446Z,10.00
2023-03-07T05:34:48.789Z,10.40
2023-03-07T05:35:49.157Z,10.80
2023-03-07T05:36:49.442Z,10.10
2023-03-07T05:37:49.821Z,11.40
2023-03-07T05:38:50.122Z,11.20
2023-03-07T05:39:50.368Z,11.30
2023-03-07T05:40:50.780Z,12.10
2023-03-07T05:41:50.987Z,11.80
2023-03-07T05:42:51.171Z,11.30
2023-03-07T05:43:51.464Z,11.70
2023-03-07T05:44:51.833Z,11.40
2023-03-07T05:45:52.118Z,12.10
2023-03-07T05:46:52.448Z,12.40
2023-03-07T05:47:52.770Z,11.70
2023-03-07T05:48:53.084Z,12.30
2023-03-07T05:49:53.390Z,11.60
2023-03-07T05:50:53.689Z,11.80
2023-03-07T05:51:54.053Z,11.60
2023-03-07T05:52:54.388Z,11.40
2023-03-07T05:53:54.698Z,11.70
2023-03-07T05:54:55.025Z,11.80
2023-03-07T05:55:55.540Z,12.10
2023-03-07T05:56:55.670Z,12.20
2023-03-07T05:57:55.984Z,12.20
2023-03-07T05:58:56.274Z,11.80
2023-03-07T05:59:56.605Z,11.40
2023-03-07T06:00:56.969Z,11.40
2023-03-07T06:01:57.264Z,12.50
2023-03-07T06:02:57.688Z,12.00
2023-03-07T06:03:57.868Z,11.80
2023-03-07T06:04:58.264Z,11.80
2023-03-07T06:05:58.518Z,12.20
2023-03-07T06:06:58.707Z,11.70
2023-03-07T06:07:59.092Z,11.50
2023-03-07T06:08:59.232Z,11.00
2023-03-07T06:09:59.590Z,12.10
2023-03-07T06:10:59.881Z,12.40
2023-03-07T06:12:00.242Z,11.20
2023-03-07T06:13:00.570Z,12.00
2023-03-07T06:14:00.882Z,11.40
2023-03-07T06:15:01.202Z,11.60
2023-03-07T06:16:01.509Z,11.60
2023-03-07T06:17:01.813Z,12.10
2023-03-07T06:18:02.143Z,11.90
2023-03-07T06:19:02.501Z,12.00
2023-03-07T06:20:02.731Z,12.00
2023-03-07T06:21:02.970Z,12.30
2023-03-07T06:22:03.278Z,12.60
2023-03-07T06:23:03.594Z,12.20
2023-03-07T06:24:03.889Z,12.90
2023-03-07T06:25:04.105Z,12.60
2023-03-07T06:26:04.341Z,12.40
2023-03-07T06:27:04.563Z,12.30
2023-03-07T06:28:04.823Z,12.60
2023-03-07T06:29:05.151Z,12.70
2023-03-07T06:30:05.408Z,12.30
2023-03-07T06:31:05.774Z,12.40
2023-03-07T06:32:06.029Z,12.60
2023-03-07T06:33:06.283Z,11.40
2023-03-07T06:34:06.611Z,11.90
2023-03-07T06:35:06.950Z,11.20
2023-03-07T06:36:07.336Z,11.60
2023-03-07T06:37:07.550Z,11.20
2023-03-07T06:38:07.888Z,11.60
2023-03-07T06:39:08.264Z,11.50
2023-03-07T06:40:08.458Z,11.20
2023-03-07T06:41:08.788Z,10.80
2023-03-07T06:42:09.082Z,11.20
2023-03-07T06:43:09.461Z,10.50
2023-03-07T06:44:09.785Z,11.10
2023-03-07T06:45:10.086Z,11.30
2023-03-07T06:46:10.427Z,10.70
2023-03-07T06:47:10.614Z,10.60
2023-03-07T06:48:10.890Z,10.30
2023-03-07T06:49:11.093Z,11.10
2023-03-07T06:50:11.332Z,11.10
2023-03-07T06:51:11.662Z,10.20
2023-03-07T06:52:11.982Z,11.10
2023-03-07T06:53:12.237Z,10.80
2023-03-07T06:54:12.567Z,10.30
2023-03-07T06:55:12.900Z,11.00
2023-03-07T06:56:13.231Z,10.90
2023-03-07T06:57:13.561Z,10.20
2023-03-07T06:58:13.892Z,10.40
2023-03-07T06:59:14.232Z,10.20
2023-03-07T07:00:14.571Z,10.50
2023-03-07T07:01:14.854Z,10.50
2023-03-07T07:02:15.329Z,10.40
2023-03-07T07:03:15.724Z,10.10
2023-03-07T07:04:15.808Z,10.40
2023-03-07T07:05:16.174Z,10.60
2023-03-07T07:06:16.391Z,9.80
2023-03-07T07:07:16.685Z,10.80
2023-03-07T07:08:16.944Z,10.20
2023-03-07T07:09:17.292Z,9.80
2023-03-07T07:10:17.610Z,10.00
2023-03-07T07:11:17.949Z,9.70
2023-03-07T07:12:18.248Z,10.10
2023-03-07T07:13:18.523Z,9.30
2023-03-07T07:14:18.813Z,10.20
2023-03-07T07:15:19.084Z,9.90
2023-03-07T07:16:19.395Z,10.00
2023-03-07T07:17:19.733Z,9.80
2023-03-07T07:18:20.207Z,9.50
2023-03-07T07:19:20.379Z,9.30
2023-03-07T07:20:20.595Z,9.60
2023-03-07T07:21:20.951Z,9.90
2023-03-07T07:22:21.289Z,9.20
2023-03-07T07:23:21.532Z,9.20
2023-03-07T07:24:21.849Z,10.30
2023-03-07T07:25:22.097Z,9.10
2023-03-07T07:26:22.329Z,9.20
2023-03-07T07:27:22.563Z,9.90
2023-03-07T07:28:22.786Z,9.00
2023-03-07T07:29:23.046Z,9.60
2023-03-07T07:30:23.853Z,8.70
2023-03-07T07:31:23.668Z,9.40
2023-03-07T07:32:24.157Z,9.10
2023-03-07T07:33:24.256Z,8.70
2023-03-07T07:34:24.539Z,8.50
2023-03-07T07:35:24.882Z,9.20
2023-03-07T07:36:25.103Z,8.60
2023-03-07T07:37:25.434Z,9.20
2023-03-07T07:38:25.789Z,8.80
2023-03-07T07:39:26.105Z,8.70
2023-03-07T07:40:26.445Z,8.60
2023-03-07T07:41:26.812Z,8.80
2023-03-07T07:42:27.107Z,8.90
2023-03-07T07:43:27.513Z,8.60
2023-03-07T07:44:27.731Z,8.70
2023-03-07T07:45:28.022Z,8.90
2023-03-07T07:46:28.369Z,9.60
2023-03-07T07:47:28.617Z,9.30
2023-03-07T07:48:28.947Z,9.40
2023-03-07T07:49:29.294Z,9.70
2023-03-07T07:50:29.614Z,8.70
2023-03-07T07:51:29.965Z,9.10
2023-03-07T07:52:30.315Z,9.20
2023-03-07T07:53:30.626Z,9.30
2023-03-07T07:54:30.930Z,9.00
2023-03-07T07:55:31.160Z,9.30
2023-03-07T07:56:31.416Z,9.60
2023-03-07T07:57:31.709Z,11.10
2023-03-07T07:58:31.996Z,9.60
2023-03-07T07:59:32.294Z,9.60
2023-03-07T08:00:32.669Z,9.20
2023-03-07T08:01:32.969Z,8.70
2023-03-07T08:02:33.314Z,8.90
2023-03-07T08:03:33.745Z,9.40
2023-03-07T08:04:33.926Z,9.00
2023-03-07T08:05:34.218Z,9.20
2023-03-07T08:06:34.577Z,9.80
2023-03-07T08:07:34.900Z,9.70
2023-03-07T08:08:35.267Z,9.50
2023-03-07T08:09:35.606Z,9.40
2023-03-07T08:10:35.875Z,9.40
2023-03-07T08:11:36.208Z,8.60
2023-03-07T08:12:36.518Z,8.70
2023-03-07T08:13:36.838Z,8.80
2023-03-07T08:14:37.107Z,8.90
2023-03-07T08:15:37.481Z,8.80
2023-03-07T08:16:37.751Z,8.80
2023-03-07T08:17:38.088Z,8.80
2023-03-07T08:18:38.404Z,8.20
2023-03-07T08:19:38.678Z,8.60
2023-03-07T08:20:39.016Z,9.00
2023-03-07T08:21:39.353Z,9.00
2023-03-07T08:22:39.728Z,9.30
2023-03-07T08:23:40.021Z,8.80
2023-03-07T08:24:41.196Z,8.90
2023-03-07T08:25:40.504Z,9.00
2023-03-07T08:26:40.840Z,8.90
2023-03-07T08:27:41.145Z,8.50
2023-03-07T08:28:41.375Z,8.70
2023-03-07T08:29:41.727Z,9.10
2023-03-07T08:30:42.014Z,8.80
2023-03-07T08:31:42.360Z,8.90
2023-03-07T08:32:42.659Z,8.30
2023-03-07T08:33:42.893Z,9.00
2023-03-07T08:34:43.204Z,8.40
2023-03-07T08:35:43.533Z,8.70
2023-03-07T08:36:43.818Z,8.40
2023-03-07T08:37:44.223Z,8.50
2023-03-07T08:38:44.488Z,8.70
2023-03-07T08:39:44.823Z,9.10
2023-03-07T08:40:45.180Z,8.00
2023-03-07T08:41:45.476Z,8.50
2023-03-07T08:42:45.901Z,8.60
2023-03-07T08:43:46.107Z,8.70
2023-03-07T08:44:46.449Z,8.80
2023-03-07T08:45:46.755Z,8.40
2023-03-07T08:46:47.072Z,8.20
2023-03-07T08:47:47.427Z,8.20
2023-03-07T08:48:47.739Z,8.60
2023-03-07T08:49:48.068Z,8.20
2023-03-07T08:50:48.397Z,8.50
2023-03-07T08:51:48.637Z,8.30
2023-03-07T08:52:48.995Z,8.30
2023-03-07T08:53:49.345Z,8.40
2023-03-07T08:54:49.628Z,7.90
2023-03-07T08:55:50.083Z,8.20
2023-03-07T10:48:08.679Z,8.80
2023-03-07T10:49:10.414Z,4.20
2023-03-07T10:50:08.635Z,4.50
2023-03-07T10:51:08.688Z,4.60
2023-03-07T10:52:08.691Z,4.40
2023-03-07T10:53:08.748Z,4.50
2023-03-07T10:54:08.718Z,4.50
2023-03-07T10:55:08.756Z,4.20
2023-03-07T10:56:08.765Z,4.40
2023-03-07T10:57:08.800Z,3.70
2023-03-07T10:58:08.798Z,4.20
2023-03-07T10:59:08.823Z,4.50
2023-03-07T11:00:08.815Z,4.00
2023-03-07T11:01:08.869Z,4.20
2023-03-07T11:02:08.871Z,4.00
2023-03-07T11:03:08.915Z,4.40
2023-03-07T11:04:08.849Z,3.90
2023-03-07T11:05:08.948Z,3.80
2023-03-07T11:06:08.892Z,4.60
2023-03-07T11:07:08.933Z,4.00
2023-03-07T11:08:08.956Z,4.20
2023-03-07T11:09:08.956Z,4.30
2023-03-07T11:10:08.983Z,4.10
2023-03-07T11:11:09.046Z,4.10
2023-03-07T11:12:09.033Z,4.10
2023-03-07T11:13:09.057Z,4.40
2023-03-07T11:14:09.067Z,4.40
2023-03-07T11:15:09.091Z,4.60
2023-03-07T11:16:11.423Z,4.80
2023-03-07T11:17:09.128Z,4.30
2023-03-07T11:18:09.162Z,4.80
2023-03-07T11:19:09.174Z,4.60
2023-03-07T11:20:09.182Z,4.40
2023-03-07T11:21:09.183Z,4.80
2023-03-07T11:22:09.167Z,4.90
2023-03-07T11:23:09.216Z,5.30
2023-03-07T11:24:09.237Z,5.30
2023-03-07T11:25:09.283Z,5.00
2023-03-07T11:26:09.276Z,4.80
2023-03-07T11:27:09.266Z,4.40
2023-03-07T11:28:09.321Z,5.10
2023-03-07T11:29:09.334Z,5.00
2023-03-07T11:30:09.320Z,5.10
2023-03-07T11:31:09.355Z,5.10
2023-03-07T11:32:09.408Z,5.40
2023-03-07T11:33:09.410Z,5.30
2023-03-07T11:34:09.393Z,5.40
2023-03-07T11:35:09.433Z,5.50
2023-03-07T11:36:09.460Z,5.10
2023-03-07T11:37:09.455Z,5.30
2023-03-07T11:38:09.493Z,5.50
2023-03-07T11:39:09.503Z,6.30
2023-03-07T11:40:09.500Z,5.30
2023-03-07T11:41:09.499Z,5.50
2023-03-07T11:42:09.526Z,5.50
2023-03-07T11:43:09.586Z,5.30
2023-03-07T11:44:09.619Z,5.50
2023-03-07T11:45:09.611Z,5.40
2023-03-07T11:46:09.627Z,5.60
2023-03-07T11:47:09.625Z,5.70
2023-03-07T11:48:09.684Z,5.70
2023-03-07T11:49:09.654Z,5.50
2023-03-07T11:50:09.728Z,5.50
2023-03-07T11:51:09.749Z,6.10
2023-03-07T11:52:09.745Z,5.70
2023-03-07T11:53:09.799Z,5.10
2023-03-07T11:54:09.749Z,5.50
2023-03-07T11:55:09.816Z,6.40
2023-03-07T11:56:09.806Z,5.50
2023-03-07T11:57:09.821Z,5.60
2023-03-07T11:58:09.878Z,5.80
2023-03-07T11:59:09.870Z,5.10
2023-03-07T12:00:09.910Z,5.60
2023-03-07T12:01:11.886Z,5.20
2023-03-07T12:02:09.938Z,5.60
2023-03-07T12:03:10.016Z,5.30
2023-03-07T12:04:09.933Z,5.80
2023-03-07T12:05:09.960Z,5.60
2023-03-07T12:06:10.079Z,5.40
2023-03-07T12:07:09.985Z,5.50
2023-03-07T12:08:10.036Z,5.50
2023-03-07T12:09:10.035Z,5.10
2023-03-07T12:10:10.089Z,5.60
2023-03-07T12:11:10.081Z,5.00
2023-03-07T12:12:10.124Z,5.40
2023-03-07T12:13:10.160Z,5.10
2023-03-07T12:14:10.152Z,5.40
2023-03-07T12:15:10.171Z,5.50
2023-03-07T12:16:10.240Z,5.30
2023-03-07T12:17:10.204Z,5.10
2023-03-07T12:18:10.215Z,5.00
2023-03-07T12:19:10.232Z,5.10
2023-03-07T12:20:10.239Z,5.60
2023-03-07T12:21:10.291Z,5.60
2023-03-07T12:22:10.271Z,5.70
2023-03-07T12:23:10.367Z,5.40
2023-03-07T12:24:10.307Z,5.60
2023-03-07T12:25:10.352Z,5.40
2023-03-07T12:26:10.405Z,5.80
2023-03-07T12:27:10.385Z,5.80
2023-03-07T12:28:10.435Z,5.70
2023-03-07T12:29:10.465Z,6.10
2023-03-07T12:30:10.435Z,5.80
2023-03-07T12:31:10.537Z,6.20
2023-03-07T12:32:10.644Z,6.00
2023-03-07T12:33:10.651Z,5.80
2023-03-07T12:34:10.503Z,6.20
2023-03-07T12:35:10.519Z,6.20
2023-03-07T12:36:10.709Z,5.90
2023-03-07T12:37:10.583Z,6.10
2023-03-07T12:38:10.581Z,5.70
2023-03-07T12:39:10.610Z,6.30
2023-03-07T12:40:10.625Z,6.10
2023-03-07T12:41:10.655Z,6.10
2023-03-07T12:42:10.674Z,6.00
2023-03-07T12:43:10.717Z,6.40
2023-03-07T12:44:10.727Z,6.20
2023-03-07T12:45:10.715Z,6.20
2023-03-07T12:46:10.731Z,6.00
2023-03-07T12:47:10.776Z,6.20
2023-03-07T12:48:10.790Z,6.80
2023-03-07T12:49:10.816Z,6.40
2023-03-07T12:50:10.784Z,6.60
2023-03-07T12:51:10.822Z,7.00
2023-03-07T12:52:10.848Z,6.40
2023-03-07T12:53:10.888Z,6.50
2023-03-07T12:54:10.883Z,6.70
2023-03-07T12:55:10.886Z,6.90
2023-03-07T12:56:10.947Z,6.70
2023-03-07T12:57:10.898Z,6.50
2023-03-07T12:58:10.975Z,6.90
2023-03-07T12:59:10.975Z,6.70
2023-03-07T13:00:10.960Z,11.00
2023-03-07T13:01:11.011Z,25.20
2023-03-07T13:02:11.034Z,18.70
2023-03-07T13:03:11.066Z,12.70
2023-03-07T13:04:11.165Z,7.30
2023-03-07T13:05:11.061Z,7.20
2023-03-07T13:06:11.081Z,7.70
2023-03-07T13:07:11.077Z,7.20
2023-03-07T13:08:12.726Z,7.40
2023-03-07T13:09:11.125Z,7.60
2023-03-07T13:10:11.114Z,7.00
2023-03-07T13:11:11.133Z,7.00
2023-03-07T13:12:11.145Z,7.00
2023-03-07T13:13:11.271Z,7.20
2023-03-07T13:14:11.202Z,6.20
2023-03-07T13:15:11.195Z,7.60
2023-03-07T13:16:11.235Z,7.00
2023-03-07T13:17:11.234Z,7.20
2023-03-07T13:18:11.301Z,7.50
2023-03-07T13:19:11.324Z,7.90
2023-03-07T13:20:11.338Z,7.30
2023-03-07T13:21:11.329Z,7.00
2023-03-07T13:22:11.323Z,7.50
2023-03-07T13:23:11.409Z,7.10
2023-03-07T13:24:11.371Z,7.00
2023-03-07T13:25:11.363Z,7.40
2023-03-07T13:26:11.423Z,7.50
2023-03-07T13:27:11.440Z,7.20
2023-03-07T13:28:11.441Z,7.50
2023-03-07T13:29:11.474Z,7.50
2023-03-07T13:30:11.533Z,7.00
2023-03-07T13:31:11.534Z,7.40
2023-03-07T13:32:11.520Z,7.70
2023-03-07T13:33:11.558Z,7.70
2023-03-07T13:34:11.559Z,7.60
2023-03-07T13:35:11.570Z,7.30
2023-03-07T13:36:11.551Z,7.60
2023-03-07T13:37:11.583Z,7.40
2023-03-07T13:38:11.647Z,7.70
2023-03-07T13:39:11.659Z,7.60
2023-03-07T13:40:11.631Z,6.80
2023-03-07T13:41:11.657Z,7.30
2023-03-07T13:42:11.724Z,7.90
2023-03-07T13:43:11.749Z,7.90
2023-03-07T13:44:11.760Z,8.00
2023-03-07T13:45:11.759Z,8.60
2023-03-07T13:46:11.782Z,8.70
2023-03-07T13:47:11.789Z,8.60
2023-03-07T13:48:11.851Z,8.00
2023-03-07T13:49:11.805Z,9.00
2023-03-07T13:50:11.831Z,8.80
2023-03-07T13:51:11.884Z,8.80
2023-03-07T13:52:11.843Z,8.40
2023-03-07T13:53:11.909Z,8.30
2023-03-07T13:54:11.940Z,8.10
2023-03-07T13:55:11.950Z,8.30
2023-03-07T13:56:11.950Z,8.00
2023-03-07T13:57:12.036Z,8.20
2023-03-07T13:58:11.998Z,8.50
2023-03-07T13:59:12.015Z,8.20
2023-03-07T14:00:11.994Z,9.30
2023-03-07T14:01:12.049Z,9.20
2023-03-07T14:02:12.059Z,9.10
2023-03-07T14:03:12.123Z,9.20
2023-03-07T14:04:12.109Z,9.60
2023-03-07T14:05:12.096Z,9.30
2023-03-07T14:06:12.113Z,9.40
2023-03-07T14:07:12.150Z,9.10
2023-03-07T14:08:12.199Z,9.80
2023-03-07T14:09:12.250Z,9.90
2023-03-07T14:10:21.881Z,11.30
2023-03-07T14:11:13.243Z,10.80
2023-03-07T14:12:12.250Z,10.50
2023-03-07T14:13:12.276Z,10.60
2023-03-07T14:14:14.546Z,11.10
2023-03-07T14:15:12.276Z,11.50
2023-03-07T14:16:12.352Z,12.40
2023-03-07T14:17:12.339Z,10.80
2023-03-07T14:18:12.390Z,11.00
2023-03-07T14:19:12.403Z,11.30
2023-03-07T14:20:12.485Z,10.40
2023-03-07T14:21:12.408Z,12.30
2023-03-07T14:22:12.401Z,11.50
2023-03-07T14:23:12.484Z,11.70
2023-03-07T14:24:12.478Z,11.90
2023-03-07T14:25:12.465Z,11.80
2023-03-07T14:26:12.471Z,11.50
2023-03-07T14:27:12.546Z,11.30
2023-03-07T14:28:12.769Z,12.80
2023-03-07T14:29:12.546Z,11.80
2023-03-07T14:30:12.571Z,11.50
2023-03-07T14:31:12.655Z,11.60
2023-03-07T14:32:12.598Z,12.00
2023-03-07T14:33:12.628Z,12.00
2023-03-07T14:34:12.669Z,12.10
2023-03-07T14:35:12.644Z,10.50
2023-03-07T14:36:12.730Z,10.30
2023-03-07T14:37:12.705Z,9.30
2023-03-07T14:38:12.710Z,9.40
2023-03-07T14:39:12.735Z,9.40
2023-03-07T14:40:12.760Z,9.00
2023-03-07T14:41:12.780Z,10.00
2023-03-07T14:42:12.795Z,8.80
2023-03-07T14:43:12.814Z,9.00
2023-03-07T14:44:12.837Z,9.60
2023-03-07T14:45:12.820Z,9.00
2023-03-07T14:46:12.921Z,9.50
2023-03-07T14:47:12.871Z,10.20
2023-03-07T14:48:12.862Z,9.80
2023-03-07T14:49:12.926Z,9.60
2023-03-07T14:50:12.907Z,9.00
2023-03-07T14:51:12.942Z,8.40
2023-03-07T14:52:24.686Z,8.30
2023-03-07T14:53:13.972Z,7.70
2023-03-07T14:54:13.016Z,8.00
2023-03-07T14:55:12.995Z,7.90
2023-03-07T14:56:13.031Z,7.20
2023-03-07T14:57:13.076Z,7.60
2023-03-07T14:58:13.070Z,7.50
2023-03-07T14:59:26.086Z,6.80
2023-03-07T15:00:14.090Z,6.60
2023-03-07T15:01:13.119Z,7.50
2023-03-07T15:02:13.161Z,5.70
2023-03-07T15:03:13.140Z,6.90
2023-03-07T15:04:13.207Z,6.40
2023-03-07T15:05:13.179Z,6.30
2023-03-07T15:06:13.183Z,6.60